Time;durP1;ratioP1;P1;durP2;ratioP2;P2;SDS_P1;SDS_P2;PMS_P1;PMS_P2;Temp;Humidity;BMP_temperature;BMP_pressure;BME280_temperature;BME280_humidity;BME280_pressure;Samples;Min_cycle;Max_cycle;Signal;HPM_P1;HPM_P2
2023/03/04 00:01:19;;;;;;;29.17;4.25;;;;;;;;;;5052170;28;20446;-72
2023/03/04 00:03:45;;;;;;;42.53;4.38;;;;;;;;;;5051833;28;20078;-72
2023/03/04 00:06:11;;;;;;;31.02;3.88;;;;;;;;;;5052204;28;20025;-72
2023/03/04 00:08:37;;;;;;;32.90;5.10;;;;;;;;;;5052156;28;20021;-72
2023/03/04 00:11:03;;;;;;;43.83;5.20;;;;;;;;;;5051960;28;20021;-72
2023/03/04 00:13:29;;;;;;;37.97;3.95;;;;;;;;;;5051648;28;20391;-71
2023/03/04 00:15:55;;;;;;;35.05;3.97;;;;;;;;;;5051815;28;20068;-72
2023/03/04 00:18:21;;;;;;;24.08;4.00;;;;;;;;;;5052043;28;20029;-72
2023/03/04 00:20:48;;;;;;;28.95;4.65;;;;;;;;;;5052088;28;20059;-72
2023/03/04 00:23:14;;;;;;;37.72;3.67;;;;;;;;;;5051569;28;20017;-73
2023/03/04 00:25:40;;;;;;;26.33;3.72;;;;;;;;;;5052038;28;20029;-72
2023/03/04 00:28:06;;;;;;;31.02;3.78;;;;;;;;;;5051806;28;20029;-72
2023/03/04 00:30:32;;;;;;;26.77;3.45;;;;;;;;;;5051702;28;20032;-72
2023/03/04 00:32:58;;;;;;;30.65;3.08;;;;;;;;;;5051460;28;20087;-73
2023/03/04 00:35:24;;;;;;;27.33;3.17;;;;;;;;;;5051736;28;20100;-72
2023/03/04 00:37:50;;;;;;;27.60;3.70;;;;;;;;;;5051752;28;20025;-73
2023/03/04 00:40:16;;;;;;;23.58;3.10;;;;;;;;;;5051554;28;20024;-73
2023/03/04 00:42:42;;;;;;;27.45;3.55;;;;;;;;;;5051293;28;20087;-73
2023/03/04 00:45:08;;;;;;;31.38;3.95;;;;;;;;;;5051425;28;20025;-72
2023/03/04 00:47:35;;;;;;;24.05;3.70;;;;;;;;;;5051419;28;20067;-74
2023/03/04 00:50:01;;;;;;;18.45;2.90;;;;;;;;;;5051503;28;20443;-72
2023/03/04 00:52:27;;;;;;;25.35;3.60;;;;;;;;;;5050988;28;20043;-74
2023/03/04 00:54:53;;;;;;;28.90;3.78;;;;;;;;;;5051462;28;20502;-73
2023/03/04 00:57:19;;;;;;;19.75;3.10;;;;;;;;;;5051265;28;20051;-73
2023/03/04 00:59:45;;;;;;;22.38;2.85;;;;;;;;;;5051369;28;20062;-73
2023/03/04 01:02:11;;;;;;;19.63;2.88;;;;;;;;;;5046762;28;20099;-73
2023/03/04 01:04:37;;;;;;;34.35;3.70;;;;;;;;;;5052136;28;20032;-73
2023/03/04 01:07:03;;;;;;;26.63;3.05;;;;;;;;;;5051110;28;20031;-73
2023/03/04 01:09:29;;;;;;;18.50;2.55;;;;;;;;;;5051483;28;20031;-72
2023/03/04 01:11:55;;;;;;;35.10;3.53;;;;;;;;;;5054172;28;20100;-73
2023/03/04 01:14:22;;;;;;;24.13;3.42;;;;;;;;;;5051956;28;20080;-73
2023/03/04 01:16:48;;;;;;;18.05;2.60;;;;;;;;;;5051333;28;20028;-74
2023/03/04 01:19:14;;;;;;;28.13;3.25;;;;;;;;;;5051404;28;20365;-72
2023/03/04 01:21:40;;;;;;;27.08;2.38;;;;;;;;;;5050953;28;20509;-72
2023/03/04 01:24:06;;;;;;;17.98;2.20;;;;;;;;;;5050655;28;20029;-73
2023/03/04 01:26:32;;;;;;;21.23;2.90;;;;;;;;;;5050710;28;20037;-73
2023/03/04 01:28:58;;;;;;;17.42;2.30;;;;;;;;;;5050909;28;20029;-72
2023/03/04 01:31:24;;;;;;;27.35;3.08;;;;;;;;;;5051363;28;20154;-74
2023/03/04 01:33:50;;;;;;;21.00;2.22;;;;;;;;;;5050693;28;20379;-73
2023/03/04 01:36:16;;;;;;;23.27;2.67;;;;;;;;;;5053337;28;20095;-74
2023/03/04 01:38:42;;;;;;;19.35;2.10;;;;;;;;;;5053342;28;20127;-73
2023/03/04 01:41:08;;;;;;;29.70;3.05;;;;;;;;;;5053981;28;20029;-73
2023/03/04 01:43:35;;;;;;;22.60;2.60;;;;;;;;;;5050661;28;20036;-73
2023/03/04 01:46:01;;;;;;;22.70;2.40;;;;;;;;;;5050894;28;20448;-74
2023/03/04 01:48:30;;;;;;;25.80;3.10;;;;;;;;;;5051047;28;20044;-73
2023/03/04 01:50:58;;;;;;;20.90;2.53;;;;;;;;;;5051267;28;20028;-75
2023/03/04 01:53:25;;;;;;;23.25;3.03;;;;;;;;;;5050544;28;20021;-74
2023/03/04 01:55:52;;;;;;;23.85;2.60;;;;;;;;;;5050549;28;20028;-72
2023/03/04 01:58:18;;;;;;;22.95;3.28;;;;;;;;;;5051103;28;20032;-73
2023/03/04 02:00:44;;;;;;;24.50;2.40;;;;;;;;;;5050644;28;20029;-72
2023/03/04 02:03:12;;;;;;;24.10;3.53;;;;;;;;;;5050460;28;20025;-73
2023/03/04 02:05:40;;;;;;;22.00;2.45;;;;;;;;;;5053153;28;20390;-72
2023/03/04 02:08:07;;;;;;;28.02;3.17;;;;;;;;;;5054521;28;20059;-72
2023/03/04 02:10:33;;;;;;;25.00;2.50;;;;;;;;;;5054303;28;20483;-73
2023/03/04 02:13:00;;;;;;;19.92;2.50;;;;;;;;;;5054044;28;20029;-73
2023/03/04 02:15:26;;;;;;;28.90;2.38;;;;;;;;;;5054055;28;20509;-72
2023/03/04 02:17:52;;;;;;;32.30;3.53;;;;;;;;;;5053966;28;20037;-73
2023/03/04 02:20:25;;;;;;;18.92;2.22;;;;;;;;;;5053975;28;20475;-73
2023/03/04 02:23:00;;;;;;;20.38;2.70;;;;;;;;;;5053531;28;20025;-73
2023/03/04 02:25:30;;;;;;;29.10;2.60;;;;;;;;;;5053931;28;20035;-73
2023/03/04 02:27:56;;;;;;;19.13;2.50;;;;;;;;;;5053790;28;20033;-73
2023/03/04 02:30:24;;;;;;;27.05;2.95;;;;;;;;;;5053825;28;20044;-73
2023/03/04 02:32:50;;;;;;;28.73;3.05;;;;;;;;;;5053688;28;20048;-73
2023/03/04 02:35:17;;;;;;;25.15;3.20;;;;;;;;;;5054108;28;20079;-72
2023/03/04 02:37:43;;;;;;;22.70;3.13;;;;;;;;;;5054613;28;20064;-73
2023/03/04 02:40:13;;;;;;;22.33;3.10;;;;;;;;;;5053579;28;20071;-72
2023/03/04 02:42:39;;;;;;;21.95;3.47;;;;;;;;;;5053341;28;20063;-73
2023/03/04 02:45:06;;;;;;;23.90;3.28;;;;;;;;;;5053284;28;20037;-73
2023/03/04 02:47:32;;;;;;;23.73;2.85;;;;;;;;;;5048748;28;20040;-72
2023/03/04 02:49:58;;;;;;;27.55;3.08;;;;;;;;;;5042612;28;20022;-72
2023/03/04 02:52:24;;;;;;;26.48;3.15;;;;;;;;;;5048279;28;20096;-73
2023/03/04 02:54:50;;;;;;;24.92;3.15;;;;;;;;;;5038143;28;20035;-73
2023/03/04 02:57:16;;;;;;;21.30;3.10;;;;;;;;;;5051292;28;20017;-73
2023/03/04 02:59:43;;;;;;;38.35;4.68;;;;;;;;;;5045029;28;20033;-72
2023/03/04 03:02:09;;;;;;;21.35;3.58;;;;;;;;;;5047346;28;20030;-72
2023/03/04 03:04:36;;;;;;;25.52;3.75;;;;;;;;;;5044184;28;20037;-70
2023/03/04 03:07:02;;;;;;;31.48;4.10;;;;;;;;;;5051271;28;20397;-73
2023/03/04 03:09:28;;;;;;;32.92;4.35;;;;;;;;;;5046799;28;20025;-72
2023/03/04 03:11:54;;;;;;;29.98;3.70;;;;;;;;;;5048126;28;20032;-71
2023/03/04 03:14:20;;;;;;;29.05;4.40;;;;;;;;;;5042641;28;20051;-72
2023/03/04 03:16:46;;;;;;;29.83;5.05;;;;;;;;;;5050209;28;20116;-71
2023/03/04 03:19:12;;;;;;;30.80;3.20;;;;;;;;;;5046753;28;20021;-71
2023/03/04 03:21:38;;;;;;;21.23;3.33;;;;;;;;;;5050396;28;20033;-72
2023/03/04 03:24:04;;;;;;;27.42;2.92;;;;;;;;;;5046638;28;20067;-72
2023/03/04 03:26:30;;;;;;;19.15;2.88;;;;;;;;;;5052423;28;20029;-71
2023/03/04 03:28:56;;;;;;;18.90;3.00;;;;;;;;;;5053088;28;20025;-72
2023/03/04 03:31:22;;;;;;;24.30;2.88;;;;;;;;;;5053505;28;20032;-71
2023/03/04 03:33:48;;;;;;;29.27;3.92;;;;;;;;;;5053088;28;20107;-72
2023/03/04 03:36:14;;;;;;;26.52;2.92;;;;;;;;;;5052210;28;20009;-70
2023/03/04 03:38:40;;;;;;;29.08;3.92;;;;;;;;;;5053313;28;20025;-69
2023/03/04 03:41:06;;;;;;;28.85;2.70;;;;;;;;;;5053430;28;20025;-70
2023/03/04 03:43:32;;;;;;;25.08;3.30;;;;;;;;;;5052940;28;20455;-71
2023/03/04 03:45:58;;;;;;;23.08;3.42;;;;;;;;;;5053318;28;20025;-70
2023/03/04 03:48:24;;;;;;;22.55;2.88;;;;;;;;;;5053047;28;20040;-70
2023/03/04 03:50:50;;;;;;;33.38;3.67;;;;;;;;;;5052992;28;20021;-71
2023/03/04 03:53:16;;;;;;;23.15;3.35;;;;;;;;;;5052926;28;20444;-71
2023/03/04 03:55:42;;;;;;;23.98;3.38;;;;;;;;;;5053523;28;20040;-70
2023/03/04 03:58:08;;;;;;;32.00;3.88;;;;;;;;;;5052951;28;20064;-72
2023/03/04 04:00:34;;;;;;;27.70;3.33;;;;;;;;;;5053063;28;20071;-71
2023/03/04 04:03:00;;;;;;;25.08;3.13;;;;;;;;;;5052637;28;20029;-70
2023/03/04 04:05:26;;;;;;;32.33;3.58;;;;;;;;;;5052798;28;20158;-70
2023/03/04 04:07:52;;;;;;;29.13;3.90;;;;;;;;;;5052908;28;20043;-70
2023/03/04 04:10:19;;;;;;;24.95;3.28;;;;;;;;;;5052899;28;20017;-69
2023/03/04 04:12:45;;;;;;;23.63;3.45;;;;;;;;;;5052304;28;20533;-71
2023/03/04 04:15:12;;;;;;;23.55;3.13;;;;;;;;;;5051923;28;20025;-70
2023/03/04 04:17:38;;;;;;;26.00;3.78;;;;;;;;;;5051591;28;20021;-71
2023/03/04 04:20:04;;;;;;;31.75;4.15;;;;;;;;;;5052797;28;20017;-73
2023/03/04 04:22:30;;;;;;;29.90;3.30;;;;;;;;;;5052698;28;20074;-70
2023/03/04 04:24:56;;;;;;;25.90;3.70;;;;;;;;;;5052976;28;20025;-71
2023/03/04 04:27:22;;;;;;;24.60;4.43;;;;;;;;;;5052888;28;20509;-70
2023/03/04 04:29:48;;;;;;;27.20;3.60;;;;;;;;;;5052565;28;20083;-71
2023/03/04 04:32:14;;;;;;;18.77;3.47;;;;;;;;;;5052414;28;20021;-69
2023/03/04 04:34:40;;;;;;;19.38;3.08;;;;;;;;;;5052640;28;20400;-71
2023/03/04 04:37:06;;;;;;;25.65;3.80;;;;;;;;;;5052647;28;20021;-70
2023/03/04 04:39:32;;;;;;;25.75;3.50;;;;;;;;;;5052456;28;20035;-70
2023/03/04 04:41:58;;;;;;;26.35;3.15;;;;;;;;;;5052332;28;20037;-70
2023/03/04 04:44:24;;;;;;;25.13;3.83;;;;;;;;;;5052764;28;20036;-70
2023/03/04 04:46:50;;;;;;;25.70;3.28;;;;;;;;;;5052784;28;20136;-70
2023/03/04 04:49:16;;;;;;;24.42;3.50;;;;;;;;;;5052140;28;20029;-71
2023/03/04 04:51:42;;;;;;;24.20;3.58;;;;;;;;;;5057605;28;20394;-71
2023/03/04 04:54:13;;;;;;;24.70;3.97;;;;;;;;;;5052949;28;20025;-74
2023/03/04 04:56:39;;;;;;;30.98;3.53;;;;;;;;;;5052843;28;20025;-70
2023/03/04 04:59:07;;;;;;;20.70;3.33;;;;;;;;;;5053064;28;20078;-71
2023/03/04 05:01:33;;;;;;;30.00;4.18;;;;;;;;;;5052691;28;20021;-70
2023/03/04 05:03:59;;;;;;;23.63;3.40;;;;;;;;;;5052306;28;20025;-71
2023/03/04 05:06:25;;;;;;;25.50;3.80;;;;;;;;;;5052304;28;20407;-71
2023/03/04 05:08:51;;;;;;;23.60;3.08;;;;;;;;;;5053717;28;20025;-71
2023/03/04 05:11:18;;;;;;;25.00;3.72;;;;;;;;;;5053227;28;20382;-71
2023/03/04 05:13:44;;;;;;;24.63;3.15;;;;;;;;;;5052300;28;20078;-71
2023/03/04 05:16:10;;;;;;;21.95;3.00;;;;;;;;;;5052013;28;20071;-70
2023/03/04 05:18:36;;;;;;;20.58;2.85;;;;;;;;;;5051828;28;20031;-70
2023/03/04 05:21:03;;;;;;;29.20;3.72;;;;;;;;;;5051810;28;20064;-70
2023/03/04 05:23:30;;;;;;;35.22;4.00;;;;;;;;;;5051473;28;20386;-71
2023/03/04 05:25:56;;;;;;;23.40;3.10;;;;;;;;;;5051918;28;20045;-71
2023/03/04 05:28:22;;;;;;;20.70;3.10;;;;;;;;;;5052146;28;20506;-71
2023/03/04 05:30:48;;;;;;;28.27;4.15;;;;;;;;;;5054670;28;20051;-71
2023/03/04 05:33:15;;;;;;;32.30;4.95;;;;;;;;;;5053007;28;20422;-71
2023/03/04 05:35:42;;;;;;;39.35;4.50;;;;;;;;;;5052130;28;20104;-71
2023/03/04 05:38:10;;;;;;;36.33;4.50;;;;;;;;;;5052571;28;20032;-71
2023/03/04 05:40:36;;;;;;;42.35;5.00;;;;;;;;;;5055860;28;20064;-72
2023/03/04 05:43:02;;;;;;;46.55;4.55;;;;;;;;;;5056198;28;20528;-70
2023/03/04 05:45:28;;;;;;;43.50;4.68;;;;;;;;;;5055446;28;20029;-70
2023/03/04 05:47:54;;;;;;;39.53;4.90;;;;;;;;;;5055624;28;20154;-70
2023/03/04 05:50:21;;;;;;;43.35;4.85;;;;;;;;;;5055584;28;20028;-70
2023/03/04 05:52:48;;;;;;;44.17;5.68;;;;;;;;;;5055341;28;20559;-70
2023/03/04 05:55:15;;;;;;;45.55;5.05;;;;;;;;;;5055483;28;20406;-72
2023/03/04 05:57:41;;;;;;;57.22;6.28;;;;;;;;;;5055718;28;20025;-71
2023/03/04 06:00:12;;;;;;;47.88;5.90;;;;;;;;;;5055648;28;20028;-72
2023/03/04 06:02:38;;;;;;;39.35;5.97;;;;;;;;;;5055309;28;20017;-72
2023/03/04 06:05:04;;;;;;;47.92;6.93;;;;;;;;;;5055383;28;20394;-71
2023/03/04 06:07:30;;;;;;;47.15;5.53;;;;;;;;;;5055682;28;20031;-72
2023/03/04 06:09:56;;;;;;;52.92;6.20;;;;;;;;;;5055333;28;20033;-70
2023/03/04 06:12:22;;;;;;;44.72;6.38;;;;;;;;;;5055270;28;20021;-70
2023/03/04 06:14:48;;;;;;;59.53;6.70;;;;;;;;;;5055308;28;20478;-72
2023/03/04 06:17:14;;;;;;;48.30;6.00;;;;;;;;;;5055249;28;20025;-71
2023/03/04 06:19:40;;;;;;;53.67;7.13;;;;;;;;;;5054980;28;20504;-70
2023/03/04 06:22:07;;;;;;;49.55;6.15;;;;;;;;;;5054934;28;20040;-72
2023/03/04 06:24:33;;;;;;;43.58;5.72;;;;;;;;;;5055185;28;20032;-71
2023/03/04 06:26:59;;;;;;;46.67;5.18;;;;;;;;;;5055134;28;20021;-71
2023/03/04 06:29:25;;;;;;;40.60;4.65;;;;;;;;;;5054821;28;20394;-71
2023/03/04 06:31:51;;;;;;;55.08;5.25;;;;;;;;;;5054609;28;20025;-71
2023/03/04 06:34:17;;;;;;;50.85;6.18;;;;;;;;;;5054629;28;20102;-70
2023/03/04 06:36:43;;;;;;;45.97;6.13;;;;;;;;;;5053921;28;20589;-71
2023/03/04 06:39:09;;;;;;;38.17;4.97;;;;;;;;;;5051592;28;20115;-71
2023/03/04 06:41:36;;;;;;;50.60;6.47;;;;;;;;;;5047797;28;20029;-70
2023/03/04 06:44:02;;;;;;;31.00;4.78;;;;;;;;;;5054133;28;20040;-71
2023/03/04 06:46:28;;;;;;;37.00;5.00;;;;;;;;;;5052711;28;20032;-71
2023/03/04 06:48:54;;;;;;;31.58;4.90;;;;;;;;;;5054420;28;20390;-71
2023/03/04 06:51:20;;;;;;;38.92;4.80;;;;;;;;;;5054126;28;20021;-71
2023/03/04 06:53:46;;;;;;;35.08;4.60;;;;;;;;;;5054344;28;20055;-72
2023/03/04 06:56:16;;;;;;;38.13;4.05;;;;;;;;;;5054063;28;20046;-72
2023/03/04 06:58:42;;;;;;;40.42;5.13;;;;;;;;;;5045789;28;20033;-71
2023/03/04 07:01:11;;;;;;;27.08;3.92;;;;;;;;;;5052353;28;20030;-71
2023/03/04 07:03:37;;;;;;;34.40;3.65;;;;;;;;;;5053563;28;20024;-72
2023/03/04 07:06:03;;;;;;;41.03;4.95;;;;;;;;;;5054200;28;20029;-72
2023/03/04 07:08:29;;;;;;;30.85;3.95;;;;;;;;;;5054188;28;20112;-74
2023/03/04 07:10:55;;;;;;;33.10;4.35;;;;;;;;;;5054737;28;20021;-74
2023/03/04 07:13:21;;;;;;;38.17;4.70;;;;;;;;;;5055276;28;20024;-73
2023/03/04 07:15:47;;;;;;;30.58;4.10;;;;;;;;;;5055841;28;20119;-74
2023/03/04 07:18:13;;;;;;;38.00;4.20;;;;;;;;;;5054326;28;20149;-75
2023/03/04 07:20:39;;;;;;;36.22;4.68;;;;;;;;;;5054091;28;20029;-71
2023/03/04 07:23:05;;;;;;;37.33;4.55;;;;;;;;;;5053823;28;20025;-73
2023/03/04 07:25:31;;;;;;;29.80;4.20;;;;;;;;;;5054142;28;20056;-71
2023/03/04 07:27:57;;;;;;;33.03;5.55;;;;;;;;;;5054998;28;20470;-70
2023/03/04 07:30:23;;;;;;;41.45;4.63;;;;;;;;;;5057111;28;20179;-72
2023/03/04 07:32:49;;;;;;;47.92;4.90;;;;;;;;;;5060936;28;20049;-71
2023/03/04 07:35:15;;;;;;;39.80;4.70;;;;;;;;;;5054418;28;20029;-72
2023/03/04 07:37:40;;;;;;;46.00;5.75;;;;;;;;;;5053948;28;20021;-71
2023/03/04 07:40:07;;;;;;;42.90;6.25;;;;;;;;;;5053497;28;20029;-73
2023/03/04 07:42:34;;;;;;;46.38;5.22;;;;;;;;;;5053384;28;20032;-71
2023/03/04 07:45:00;;;;;;;42.58;5.43;;;;;;;;;;5053538;28;20040;-71
2023/03/04 07:47:27;;;;;;;43.22;5.57;;;;;;;;;;5053721;28;20033;-72
2023/03/04 07:49:53;;;;;;;37.25;4.85;;;;;;;;;;5055991;28;20025;-74
2023/03/04 07:52:20;;;;;;;40.60;4.80;;;;;;;;;;5057764;28;20021;-75
2023/03/04 07:54:46;;;;;;;57.95;7.05;;;;;;;;;;5058011;28;20028;-73
2023/03/04 07:57:12;;;;;;;49.92;6.15;;;;;;;;;;5057740;28;20043;-74
2023/03/04 07:59:38;;;;;;;46.40;6.57;;;;;;;;;;5055290;28;20410;-75
2023/03/04 08:02:04;;;;;;;49.05;5.50;;;;;;;;;;5053700;28;20318;-74
2023/03/04 08:04:30;;;;;;;46.17;7.03;;;;;;;;;;5053154;28;20029;-70
2023/03/04 08:06:56;;;;;;;50.72;6.15;;;;;;;;;;5053073;28;20109;-71
2023/03/04 08:09:22;;;;;;;58.92;7.80;;;;;;;;;;5052657;28;20047;-72
2023/03/04 08:11:48;;;;;;;48.15;5.75;;;;;;;;;;5053041;28;20021;-72
2023/03/04 08:14:14;;;;;;;49.50;5.70;;;;;;;;;;5053068;28;20390;-72
2023/03/04 08:16:40;;;;;;;45.63;5.53;;;;;;;;;;5054212;28;20470;-72
2023/03/04 08:19:06;;;;;;;55.30;6.20;;;;;;;;;;5053153;28;20521;-71
2023/03/04 08:21:32;;;;;;;45.83;6.82;;;;;;;;;;5053038;28;20040;-71
2023/03/04 08:24:01;;;;;;;53.83;6.57;;;;;;;;;;5052584;28;20028;-72
2023/03/04 08:26:28;;;;;;;51.28;7.35;;;;;;;;;;5053171;28;20387;-72
2023/03/04 08:28:55;;;;;;;46.95;6.72;;;;;;;;;;5052614;28;20029;-70
2023/03/04 08:31:21;;;;;;;58.45;7.55;;;;;;;;;;5052531;28;20074;-71
2023/03/04 08:33:47;;;;;;;41.78;6.35;;;;;;;;;;5052394;28;20025;-72
2023/03/04 08:36:14;;;;;;;47.72;6.63;;;;;;;;;;5052663;28;20074;-70
2023/03/04 08:38:40;;;;;;;32.53;5.45;;;;;;;;;;5052853;28;20500;-72
2023/03/04 08:41:06;;;;;;;54.08;5.93;;;;;;;;;;5052498;28;20021;-71
2023/03/04 08:43:32;;;;;;;41.30;6.22;;;;;;;;;;5052097;28;20114;-71
2023/03/04 08:45:58;;;;;;;40.67;5.85;;;;;;;;;;5052902;28;20047;-71
2023/03/04 08:48:24;;;;;;;54.03;6.75;;;;;;;;;;5051969;28;20075;-72
2023/03/04 08:50:52;;;;;;;45.85;7.85;;;;;;;;;;5051627;28;20045;-71
2023/03/04 08:53:18;;;;;;;51.33;7.20;;;;;;;;;;5051609;28;20029;-74
2023/03/04 08:55:44;;;;;;;54.47;7.32;;;;;;;;;;5052065;28;20072;-71
2023/03/04 08:58:11;;;;;;;65.45;8.98;;;;;;;;;;5052929;28;20037;-72
2023/03/04 09:00:39;;;;;;;42.15;5.65;;;;;;;;;;5052478;28;20052;-71
2023/03/04 09:03:05;;;;;;;49.05;7.70;;;;;;;;;;5052313;28;20446;-72
2023/03/04 09:05:32;;;;;;;56.70;6.90;;;;;;;;;;5053118;28;20029;-71
2023/03/04 09:07:58;;;;;;;54.17;7.10;;;;;;;;;;5052940;28;20096;-74
2023/03/04 09:10:24;;;;;;;51.97;6.80;;;;;;;;;;5051991;28;20055;-71
2023/03/04 09:12:50;;;;;;;54.80;6.97;;;;;;;;;;5051389;28;20036;-71
2023/03/04 09:15:17;;;;;;;44.35;6.30;;;;;;;;;;5051795;28;20103;-71
2023/03/04 09:17:43;;;;;;;36.78;6.10;;;;;;;;;;5051935;28;20025;-72
2023/03/04 09:20:10;;;;;;;43.63;6.97;;;;;;;;;;5052075;28;20379;-74
2023/03/04 09:22:37;;;;;;;61.58;6.45;;;;;;;;;;5050556;28;20548;-72
2023/03/04 09:25:03;;;;;;;43.50;5.97;;;;;;;;;;5052963;28;20466;-73
2023/03/04 09:27:29;;;;;;;52.08;6.38;;;;;;;;;;5052052;28;20033;-73
2023/03/04 09:29:55;;;;;;;62.72;6.93;;;;;;;;;;5052721;28;20025;-74
2023/03/04 09:32:21;;;;;;;42.15;6.43;;;;;;;;;;5054163;28;20025;-74
2023/03/04 09:34:47;;;;;;;49.28;6.07;;;;;;;;;;5053744;28;20103;-75
2023/03/04 09:37:13;;;;;;;49.40;5.75;;;;;;;;;;5052632;28;20048;-74
2023/03/04 09:39:39;;;;;;;60.15;6.45;;;;;;;;;;5053063;28;20475;-74
2023/03/04 09:42:06;;;;;;;41.90;6.38;;;;;;;;;;5052516;28;20074;-76
2023/03/04 09:44:35;;;;;;;56.45;7.00;;;;;;;;;;5052064;28;20037;-74
2023/03/04 09:47:11;;;;;;;47.25;7.63;;;;;;;;;;5052004;28;20036;-74
2023/03/04 09:49:39;;;;;;;49.35;6.32;;;;;;;;;;5051385;28;20497;-74
2023/03/04 09:52:20;;;;;;;64.45;8.50;;;;;;;;;;5052003;28;20386;-74
2023/03/04 09:54:51;;;;;;;54.72;5.88;;;;;;;;;;5051711;28;20025;-75
2023/03/04 09:57:23;;;;;;;49.35;6.38;;;;;;;;;;5051882;28;20021;-74
2023/03/04 10:00:12;;;;;;;50.38;6.53;;;;;;;;;;5052493;28;20368;-72
2023/03/04 10:03:01;;;;;;;51.72;7.30;;;;;;;;;;5048210;28;20044;-72
2023/03/04 10:05:29;;;;;;;58.58;6.90;;;;;;;;;;5048230;28;20072;-74
2023/03/04 10:07:57;;;;;;;55.38;7.00;;;;;;;;;;5051600;28;20160;-73
2023/03/04 10:10:31;;;;;;;54.33;7.50;;;;;;;;;;5051421;28;20033;-72
2023/03/04 10:12:57;;;;;;;54.23;6.77;;;;;;;;;;5050440;28;20040;-73
2023/03/04 10:15:23;;;;;;;52.58;7.40;;;;;;;;;;5051134;28;20286;-72
2023/03/04 10:17:52;;;;;;;56.35;6.03;;;;;;;;;;5051279;28;20028;-72
2023/03/04 10:20:22;;;;;;;41.03;6.07;;;;;;;;;;5051151;28;20047;-73
2023/03/04 10:22:49;;;;;;;50.45;7.13;;;;;;;;;;5050813;28;20052;-71
2023/03/04 10:25:17;;;;;;;42.95;6.63;;;;;;;;;;5051267;28;20415;-72
2023/03/04 10:27:44;;;;;;;60.60;9.32;;;;;;;;;;5054912;28;20075;-74
2023/03/04 10:30:26;;;;;;;66.60;10.45;;;;;;;;;;5055063;28;20104;-76
2023/03/04 10:32:52;;;;;;;47.78;7.13;;;;;;;;;;5056660;28;20036;-76
2023/03/04 10:35:19;;;;;;;38.10;6.72;;;;;;;;;;5055794;28;20021;-77
2023/03/04 10:37:48;;;;;;;56.97;8.68;;;;;;;;;;5057141;28;20052;-75
2023/03/04 10:40:21;;;;;;;52.42;7.53;;;;;;;;;;5058936;28;20017;-74
2023/03/04 10:42:48;;;;;;;52.10;7.28;;;;;;;;;;5059305;28;20103;-74
2023/03/04 10:45:20;;;;;;;42.55;7.28;;;;;;;;;;5058657;28;20175;-72
2023/03/04 10:47:52;;;;;;;45.55;8.63;;;;;;;;;;5054961;28;20018;-72
2023/03/04 10:50:25;;;;;;;55.00;8.65;;;;;;;;;;5054417;28;20114;-73
2023/03/04 10:52:54;;;;;;;46.58;7.70;;;;;;;;;;5054370;28;20098;-76
2023/03/04 10:55:24;;;;;;;51.50;9.73;;;;;;;;;;5054363;28;20108;-72
2023/03/04 10:57:53;;;;;;;42.20;7.10;;;;;;;;;;5054131;28;20025;-72
2023/03/04 11:00:25;;;;;;;56.10;11.55;;;;;;;;;;5054030;28;20112;-72
2023/03/04 11:02:51;;;;;;;47.10;6.82;;;;;;;;;;5056761;28;20197;-73
2023/03/04 11:05:31;;;;;;;43.40;6.70;;;;;;;;;;5055378;28;20053;-72
2023/03/04 11:08:00;;;;;;;49.42;6.75;;;;;;;;;;5055290;28;20028;-75
2023/03/04 11:10:35;;;;;;;42.13;6.85;;;;;;;;;;5056893;28;20029;-72
2023/03/04 11:13:10;;;;;;;50.10;6.45;;;;;;;;;;5059695;28;20051;-72
2023/03/04 11:15:51;;;;;;;39.00;5.40;;;;;;;;;;5054126;28;20509;-72
2023/03/04 11:18:18;;;;;;;45.90;6.78;;;;;;;;;;5054135;28;20028;-71
2023/03/04 11:20:47;;;;;;;37.97;5.30;;;;;;;;;;5054234;28;20025;-72
2023/03/04 11:23:17;;;;;;;46.35;6.47;;;;;;;;;;5054282;28;20025;-71
2023/03/04 11:25:46;;;;;;;43.55;6.35;;;;;;;;;;5053789;28;20116;-71
2023/03/04 11:28:39;;;;;;;36.55;5.88;;;;;;;;;;5053623;28;20049;-72
2023/03/04 11:31:12;;;;;;;42.40;6.13;;;;;;;;;;5053715;28;20021;-72
2023/03/04 11:33:53;;;;;;;34.50;6.05;;;;;;;;;;5054063;28;20025;-71
2023/03/04 11:36:22;;;;;;;33.33;5.50;;;;;;;;;;5053067;28;20427;-70
2023/03/04 11:38:49;;;;;;;44.95;6.60;;;;;;;;;;5052622;28;20029;-71
2023/03/04 11:41:30;;;;;;;44.70;5.78;;;;;;;;;;5055548;28;20067;-72
2023/03/04 11:43:57;;;;;;;41.08;6.50;;;;;;;;;;5065382;28;20033;-72
2023/03/04 11:46:34;;;;;;;52.00;7.00;;;;;;;;;;5065269;28;20412;-72
2023/03/04 11:49:00;;;;;;;45.72;6.80;;;;;;;;;;5064591;28;20044;-72
2023/03/04 11:51:45;;;;;;;42.72;6.60;;;;;;;;;;5065067;28;20021;-72
2023/03/04 11:54:21;;;;;;;51.50;8.00;;;;;;;;;;5045191;28;20021;-72
2023/03/04 11:56:50;;;;;;;47.17;7.45;;;;;;;;;;5038800;28;20021;-72
2023/03/04 11:59:20;;;;;;;40.38;5.95;;;;;;;;;;5037747;28;20032;-73
2023/03/04 12:01:48;;;;;;;41.45;6.18;;;;;;;;;;5037219;28;20028;-73
2023/03/04 12:04:36;;;;;;;38.40;5.47;;;;;;;;;;5038568;28;20068;-72
2023/03/04 12:07:02;;;;;;;42.80;6.72;;;;;;;;;;5038601;28;20037;-71
2023/03/04 12:09:31;;;;;;;51.53;7.25;;;;;;;;;;5036732;28;20028;-72
2023/03/04 12:12:06;;;;;;;44.80;7.07;;;;;;;;;;5037099;28;20060;-72
2023/03/04 12:14:37;;;;;;;48.60;7.57;;;;;;;;;;5037082;28;20083;-73
2023/03/04 12:17:03;;;;;;;33.97;5.75;;;;;;;;;;5036714;28;20108;-72
2023/03/04 12:19:32;;;;;;;48.25;8.07;;;;;;;;;;5036976;28;20108;-73
2023/03/04 12:21:58;;;;;;;40.28;6.53;;;;;;;;;;5036598;28;20060;-74
2023/03/04 12:24:27;;;;;;;37.20;6.63;;;;;;;;;;5036644;28;20079;-73
2023/03/04 12:27:07;;;;;;;47.08;6.95;;;;;;;;;;5038083;28;20033;-72
2023/03/04 12:29:52;;;;;;;50.50;8.07;;;;;;;;;;5037080;28;20039;-72
2023/03/04 12:32:30;;;;;;;48.80;6.00;;;;;;;;;;5036631;28;20032;-73
2023/03/04 12:35:05;;;;;;;50.22;6.28;;;;;;;;;;5037944;28;20056;-73
2023/03/04 12:37:51;;;;;;;38.25;6.10;;;;;;;;;;5036562;28;20031;-72
2023/03/04 12:40:34;;;;;;;38.53;5.72;;;;;;;;;;5041798;28;20027;-71
2023/03/04 12:43:09;;;;;;;35.70;5.53;;;;;;;;;;5040174;28;20022;-71
2023/03/04 12:45:53;;;;;;;37.33;5.25;;;;;;;;;;5035133;28;20399;-72
2023/03/04 12:48:30;;;;;;;29.40;4.28;;;;;;;;;;5043543;28;20114;-71
2023/03/04 12:51:20;;;;;;;37.45;5.95;;;;;;;;;;5052551;28;20029;-72
2023/03/04 12:53:55;;;;;;;41.50;6.25;;;;;;;;;;5052060;28;20025;-71
2023/03/04 12:56:40;;;;;;;37.38;5.43;;;;;;;;;;5052108;28;20020;-72
2023/03/04 12:59:09;;;;;;;40.80;6.85;;;;;;;;;;5052234;28;20035;-72
2023/03/04 13:01:41;;;;;;;39.85;6.30;;;;;;;;;;5051932;28;20048;-72
2023/03/04 13:04:21;;;;;;;34.53;6.82;;;;;;;;;;5051743;28;20033;-72
2023/03/04 13:07:06;;;;;;;34.97;5.45;;;;;;;;;;5051994;28;20020;-71
2023/03/04 13:09:34;;;;;;;36.20;5.50;;;;;;;;;;5051622;28;20029;-72
2023/03/04 13:12:17;;;;;;;33.05;5.65;;;;;;;;;;5051419;28;20027;-72
2023/03/04 13:15:02;;;;;;;30.45;5.70;;;;;;;;;;5052716;28;20474;-72
2023/03/04 13:17:46;;;;;;;34.22;6.07;;;;;;;;;;5054442;28;20025;-73
2023/03/04 13:20:30;;;;;;;35.40;5.53;;;;;;;;;;5052257;28;20055;-70
2023/03/04 13:23:08;;;;;;;39.97;6.00;;;;;;;;;;5043131;28;20290;-70
2023/03/04 13:25:53;;;;;;;32.85;4.68;;;;;;;;;;5048432;28;20431;-72
2023/03/04 13:28:19;;;;;;;;;;;;;;;;;;5044377;28;20033;-71
2023/03/04 13:30:54;;;;;;;30.77;5.68;;;;;;;;;;5048507;28;20384;-71
2023/03/04 13:33:23;;;;;;;33.30;5.43;;;;;;;;;;5048349;28;20471;-70
2023/03/04 13:35:50;;;;;;;35.55;5.60;;;;;;;;;;5048891;28;20075;-71
2023/03/04 13:38:36;;;;;;;25.75;4.90;;;;;;;;;;5051496;28;20112;-71
2023/03/04 13:41:07;;;;;;;23.88;5.40;;;;;;;;;;5044832;28;20024;-71
2023/03/04 13:43:49;;;;;;;34.03;4.72;;;;;;;;;;5053590;28;20052;-72
2023/03/04 13:46:18;;;;;;;36.28;6.85;;;;;;;;;;5059593;28;20029;-72
2023/03/04 13:48:50;;;;;;;42.38;6.55;;;;;;;;;;5062558;28;20039;-72
2023/03/04 13:51:17;;;;;;;34.28;6.25;;;;;;;;;;5053349;28;20024;-72
2023/03/04 13:53:53;;;;;;;49.40;7.35;;;;;;;;;;5048670;28;20036;-71
2023/03/04 13:56:22;;;;;;;32.45;5.82;;;;;;;;;;5049731;28;20044;-71
2023/03/04 13:58:50;;;;;;;29.73;6.18;;;;;;;;;;5052393;28;20021;-70
2023/03/04 14:01:23;;;;;;;33.30;4.72;;;;;;;;;;5052176;28;20104;-71
2023/03/04 14:03:49;;;;;;;42.65;5.50;;;;;;;;;;5054843;28;20025;-71
2023/03/04 14:06:16;;;;;;;26.08;5.07;;;;;;;;;;5054245;28;20470;-71
2023/03/04 14:08:42;;;;;;;26.70;4.68;;;;;;;;;;5055785;28;20115;-70
2023/03/04 14:11:13;;;;;;;27.15;4.88;;;;;;;;;;5054219;28;20018;-70
2023/03/04 14:13:39;;;;;;;27.35;4.35;;;;;;;;;;5053857;28;20074;-70
2023/03/04 14:16:05;;;;;;;32.28;5.00;;;;;;;;;;5054605;28;20017;-71
2023/03/04 14:18:31;;;;;;;33.65;5.57;;;;;;;;;;5056211;28;20040;-71
2023/03/04 14:20:58;;;;;;;33.22;4.28;;;;;;;;;;5046501;28;20352;-71
2023/03/04 14:23:32;;;;;;;29.63;4.07;;;;;;;;;;5047658;28;20029;-71
2023/03/04 14:26:10;;;;;;;24.15;4.57;;;;;;;;;;5043246;28;20021;-71
2023/03/04 14:28:46;;;;;;;35.20;5.30;;;;;;;;;;5046046;28;20067;-70
2023/03/04 14:31:15;;;;;;;30.75;4.82;;;;;;;;;;5046708;28;20632;-71
2023/03/04 14:33:44;;;;;;;27.58;5.30;;;;;;;;;;5045789;28;20024;-73
2023/03/04 14:36:15;;;;;;;30.88;5.18;;;;;;;;;;5044006;28;20022;-71
2023/03/04 14:38:42;;;;;;;25.60;4.40;;;;;;;;;;5045700;28;20029;-73